Time;durP1;ratioP1;P1;durP2;ratioP2;P2;SDS_P1;SDS_P2;PMS_P1;PMS_P2;Temp;Humidity;BMP_temperature;BMP_pressure;BME280_temperature;BME280_humidity;BME280_pressure;Samples;Min_cycle;Max_cycle;Signal;HPM_P1;HPM_P2
2022/12/10 00:01:30;;;;;;;;;71.25;58.00;;;;;4.94;72.23;100402.38;5076597;27;45350;-73
2022/12/10 00:03:56;;;;;;;;;70.25;55.50;;;;;5.34;72.58;100454.47;5075279;28;48423;-73
2022/12/10 00:06:27;;;;;;;;;72.25;57.75;;;;;5.38;72.32;100460.50;5075421;28;46034;-73
2022/12/10 00:08:53;;;;;;;;;66.25;52.50;;;;;5.10;72.20;100407.91;5076418;27;45425;-73
2022/12/10 00:11:19;;;;;;;;;70.25;56.50;;;;;5.53;72.42;100467.78;5078458;27;45341;-72
2022/12/10 00:13:46;;;;;;;;;69.00;55.50;;;;;5.44;72.28;100467.31;5075794;28;48751;-73
2022/12/10 00:16:14;;;;;;;;;69.50;55.00;;;;;5.39;72.31;100475.44;5077285;27;45350;-72
2022/12/10 00:18:40;;;;;;;;;63.25;49.00;;;;;5.45;72.87;100474.31;5076809;27;45468;-73
2022/12/10 00:21:09;;;;;;;;;65.00;54.25;;;;;5.50;72.61;100480.28;5077369;27;45556;-73
2022/12/10 00:23:35;;;;;;;;;75.00;58.00;;;;;5.48;72.47;100474.19;5076857;27;46223;-73
2022/12/10 00:26:16;;;;;;;;;68.75;53.50;;;;;5.56;72.35;100491.47;5076747;27;45365;-73
2022/12/10 00:28:42;;;;;;;;;63.50;51.75;;;;;5.57;72.56;100487.03;5077119;27;45375;-73
2022/12/10 00:31:10;;;;;;;;;73.00;55.75;;;;;5.58;72.34;100487.91;5091415;27;45543;-73
2022/12/10 00:33:36;;;;;;;;;71.00;56.25;;;;;5.63;72.46;100494.72;5074365;27;46252;-73
2022/12/10 00:36:08;;;;;;;;;68.25;54.75;;;;;5.66;72.03;100499.03;5076158;27;45353;-73
2022/12/10 00:38:33;;;;;;;;;75.25;56.50;;;;;5.69;72.19;100491.78;5076392;27;45412;-73
2022/12/10 00:40:59;;;;;;;;;67.50;55.00;;;;;5.68;71.85;100484.81;5075954;27;45473;-72
2022/12/10 00:43:25;;;;;;;;;64.25;53.50;;;;;5.69;72.11;100491.78;5076200;27;46565;-71
2022/12/10 00:45:50;;;;;;;;;70.75;54.50;;;;;5.61;71.83;100493.06;5075990;27;45407;-71
2022/12/10 00:48:15;;;;;;;;;62.50;49.75;;;;;5.54;72.01;100488.00;5075964;27;45713;-72
2022/12/10 00:50:41;;;;;;;;;62.75;49.75;;;;;5.62;72.82;100493.00;5076299;27;45391;-73
2022/12/10 00:53:06;;;;;;;;;60.75;49.50;;;;;5.43;72.63;100462.97;5074484;28;45556;-73
2022/12/10 00:55:31;;;;;;;;;60.50;49.50;;;;;5.53;72.91;100493.38;5074839;27;45405;-73
2022/12/10 00:57:57;;;;;;;;;59.00;48.25;;;;;5.37;73.28;100495.81;5073826;27;45924;-74
2022/12/10 01:00:24;;;;;;;;;61.50;50.75;;;;;5.41;73.58;100493.91;5074985;27;45481;-74
2022/12/10 01:02:49;;;;;;;;;58.25;48.75;;;;;5.47;73.42;100485.72;5074715;28;46249;-73
2022/12/10 01:05:15;;;;;;;;;57.50;47.00;;;;;5.01;73.07;100410.00;5071704;28;45299;-73
2022/12/10 01:07:40;;;;;;;;;60.50;45.50;;;;;5.18;72.92;100437.53;5075115;27;45643;-73
2022/12/10 01:10:05;;;;;;;;;58.25;44.50;;;;;5.42;73.20;100492.97;5073741;28;45429;-74
2022/12/10 01:12:31;;;;;;;;;56.25;46.25;;;;;5.34;73.36;100478.25;5075086;27;45848;-74
2022/12/10 01:14:56;;;;;;;;;61.50;48.75;;;;;5.52;73.04;100495.19;5074885;27;45578;-73
2022/12/10 01:17:22;;;;;;;;;60.75;47.00;;;;;5.47;73.43;100497.16;5074636;27;45523;-72
2022/12/10 01:19:47;;;;;;;;;60.00;48.00;;;;;5.40;73.25;100490.41;5075256;27;45535;-73
2022/12/10 01:22:12;;;;;;;;;59.25;48.50;;;;;4.63;73.11;100366.63;5075590;28;46346;-72
2022/12/10 01:24:38;;;;;;;;;59.25;46.25;;;;;5.20;73.32;100481.50;5075104;28;45382;-73
2022/12/10 01:27:03;;;;;;;;;49.50;41.50;;;;;5.07;73.37;100456.47;5075381;28;45458;-72
2022/12/10 01:29:29;;;;;;;;;57.25;46.50;;;;;5.36;73.39;100505.53;5074602;27;45952;-73
2022/12/10 01:31:57;;;;;;;;;61.75;46.25;;;;;5.43;72.91;100516.72;5075185;27;47217;-73
2022/12/10 01:34:22;;;;;;;;;56.25;42.50;;;;;5.29;73.13;100492.63;5075052;27;45349;-72
2022/12/10 01:36:51;;;;;;;;;61.75;49.00;;;;;5.26;73.23;100506.81;5075662;27;45384;-73
2022/12/10 01:39:17;;;;;;;;;47.50;40.75;;;;;5.22;73.42;100518.44;5075869;27;45492;-73
2022/12/10 01:41:49;;;;;;;;;55.50;43.00;;;;;5.00;73.72;100487.59;5074501;27;46221;-73
2022/12/10 01:44:14;;;;;;;;;47.00;41.25;;;;;5.37;73.84;100540.78;5074728;28;45328;-73
2022/12/10 01:46:43;;;;;;;;;53.00;43.50;;;;;5.35;73.50;100534.69;5074487;28;45514;-73
2022/12/10 01:49:12;;;;;;;;;47.75;40.00;;;;;5.19;74.12;100514.16;5074808;27;45464;-73
2022/12/10 01:51:40;;;;;;;;;45.00;39.50;;;;;5.37;74.02;100541.66;5075074;27;46743;-73
2022/12/10 01:54:10;;;;;;;;;49.50;39.75;;;;;5.02;73.89;100475.19;5073414;28;45880;-73
2022/12/10 01:56:41;;;;;;;;;59.75;48.75;;;;;5.44;73.76;100541.38;5074906;28;45409;-72
2022/12/10 01:59:07;;;;;;;;;53.00;44.25;;;;;5.13;74.04;100500.31;5074786;27;45422;-73
2022/12/10 02:01:40;;;;;;;;;56.00;45.50;;;;;5.39;73.79;100542.44;5073866;27;45791;-72
2022/12/10 02:04:15;;;;;;;;;49.75;41.50;;;;;5.50;73.78;100554.38;5075016;28;45446;-72
2022/12/10 02:07:17;;;;;;;;;42.50;39.00;;;;;5.50;73.87;100554.38;5075272;28;45345;-73
2022/12/10 02:10:07;;;;;;;;;54.00;45.50;;;;;5.54;73.47;100556.81;5075252;28;45404;-72
2022/12/10 02:12:58;;;;;;;;;42.00;38.00;;;;;5.53;73.84;100564.81;5075348;27;46273;-73
2022/12/10 02:15:36;;;;;;;;;50.75;42.00;;;;;5.52;73.29;100561.31;5074606;28;45385;-73
2022/12/10 02:18:07;;;;;;;;;51.75;43.50;;;;;5.49;73.20;100560.56;5074745;27;45334;-73
2022/12/10 02:20:39;;;;;;;;;56.75;47.75;;;;;5.21;73.71;100501.72;5074698;28;45301;-73
2022/12/10 02:23:29;;;;;;;;;56.25;44.50;;;;;5.57;73.85;100571.69;5074326;28;46099;-73
2022/12/10 02:26:06;;;;;;;;;56.25;45.75;;;;;5.17;73.92;100516.00;5072565;28;45431;-73
2022/12/10 02:29:10;;;;;;;;;45.75;42.00;;;;;5.51;74.42;100571.97;5083396;27;45491;-73
2022/12/10 02:31:40;;;;;;;;;54.25;46.50;;;;;5.38;74.46;100540.72;5054108;28;45487;-72
2022/12/10 02:34:09;;;;;;;;;47.75;40.75;;;;;5.51;74.37;100564.03;5058520;28;46041;-72
2022/12/10 02:36:39;;;;;;;;;41.00;35.50;;;;;5.29;73.57;100533.16;5064572;27;45382;-72
2022/12/10 02:39:10;;;;;;;;;41.75;39.00;;;;;5.54;74.28;100563.91;5055688;28;45449;-73
2022/12/10 02:41:42;;;;;;;;;52.25;43.50;;;;;5.61;74.15;100572.44;5054165;28;45455;-73
2022/12/10 02:44:12;;;;;;;;;42.75;36.50;;;;;5.65;73.75;100569.59;5053923;28;45650;-73
2022/12/10 02:46:41;;;;;;;;;45.25;41.50;;;;;5.69;73.61;100573.00;5056726;28;45409;-73
2022/12/10 02:49:11;;;;;;;;;50.00;39.50;;;;;5.69;73.38;100573.00;5073844;27;45405;-73
2022/12/10 02:51:37;;;;;;;;;47.50;40.50;;;;;5.42;73.54;100530.00;5074108;27;45460;-73
2022/12/10 02:54:06;;;;;;;;;49.50;37.25;;;;;5.48;73.44;100548.25;5073894;27;46287;-73
2022/12/10 02:56:50;;;;;;;;;50.75;40.75;;;;;5.66;73.78;100571.31;5072227;28;45421;-72
2022/12/10 02:59:42;;;;;;;;;45.25;39.50;;;;;5.66;73.14;100566.03;5068987;28;45428;-73
2022/12/10 03:02:14;;;;;;;;;44.25;39.25;;;;;5.64;73.64;100570.53;5073711;27;45679;-73
2022/12/10 03:05:00;;;;;;;;;49.50;39.25;;;;;5.61;73.98;100572.44;5073252;27;47338;-73
2022/12/10 03:07:35;;;;;;;;;47.25;38.75;;;;;5.60;74.09;100573.38;5073323;27;45440;-73
2022/12/10 03:10:31;;;;;;;;;52.50;42.25;;;;;5.64;73.68;100573.19;5073414;27;45733;-73
2022/12/10 03:13:02;;;;;;;;;29.50;25.00;;;;;5.66;73.38;100575.78;5072016;28;45441;-72
2022/12/10 03:15:29;;;;;;;;;46.25;39.25;;;;;5.68;73.28;100574.78;5074022;27;45492;-73
2022/12/10 03:17:58;;;;;;;;;44.50;39.75;;;;;5.67;73.52;100578.34;5073758;27;45784;-73
2022/12/10 03:20:25;;;;;;;;;40.75;35.25;;;;;5.67;73.00;100577.50;5074399;28;45439;-73
2022/12/10 03:22:51;;;;;;;;;46.50;38.75;;;;;5.67;73.78;100581.00;5073801;27;45467;-73
2022/12/10 03:25:24;;;;;;;;;46.25;37.75;;;;;5.73;72.92;100580.72;5072383;28;46775;-73
2022/12/10 03:27:53;;;;;;;;;38.75;30.75;;;;;5.73;73.29;100591.31;5073660;27;45381;-73
2022/12/10 03:30:19;;;;;;;;;46.00;39.75;;;;;5.38;72.91;100526.63;5073659;27;45644;-73
2022/12/10 03:32:45;;;;;;;;;41.25;34.25;;;;;5.78;72.78;100592.94;5073858;27;45292;-73
2022/12/10 03:35:12;;;;;;;;;37.50;35.75;;;;;5.59;73.12;100548.69;5073569;27;45430;-73
2022/12/10 03:37:37;;;;;;;;;40.00;36.25;;;;;5.77;72.65;100585.91;5073517;27;45749;-73
2022/12/10 03:40:05;;;;;;;;;42.25;37.25;;;;;5.75;73.27;100595.69;5073578;27;45403;-73
2022/12/10 03:42:30;;;;;;;;;44.75;39.00;;;;;5.55;73.03;100557.69;5073845;27;45352;-73
2022/12/10 03:44:56;;;;;;;;;40.25;34.75;;;;;5.64;72.81;100583.78;5073471;27;46529;-73
2022/12/10 03:47:23;;;;;;;;;37.25;32.50;;;;;5.52;72.81;100548.09;5073494;27;45745;-72
2022/12/10 03:49:48;;;;;;;;;40.00;33.75;;;;;5.42;73.15;100530.00;5055293;28;45391;-72
2022/12/10 03:52:14;;;;;;;;;49.00;39.50;;;;;5.72;72.79;100591.38;5072852;27;45461;-72
2022/12/10 03:54:39;;;;;;;;;43.25;34.50;;;;;5.73;73.03;100599.25;5073342;27;46369;-72
2022/12/10 03:57:05;;;;;;;;;42.50;39.50;;;;;5.76;73.20;100600.06;5073497;27;45411;-72
2022/12/10 03:59:31;;;;;;;;;40.00;33.75;;;;;5.75;73.07;100599.22;5072291;28;45393;-72
2022/12/10 04:01:56;;;;;;;;;39.00;32.25;;;;;5.74;73.43;100605.44;5088807;27;45359;-72
2022/12/10 04:04:21;;;;;;;;;49.75;38.50;;;;;5.41;73.25;100544.16;5072299;27;47029;-72
2022/12/10 04:06:47;;;;;;;;;43.75;36.75;;;;;5.78;73.33;100606.16;5073088;27;45388;-72
2022/12/10 04:09:14;;;;;;;;;39.75;34.50;;;;;5.82;73.09;100613.06;5072840;27;45429;-72
2022/12/10 04:11:40;;;;;;;;;41.50;35.25;;;;;5.49;72.92;100547.34;5072470;27;45449;-71
2022/12/10 04:16:49;;;;;;;;;41.75;37.75;;;;;5.91;72.65;100604.69;5074674;28;45456;-72
2022/12/10 04:19:16;;;;;;;;;41.75;36.00;;;;;5.92;72.75;100614.38;5075923;27;45346;-73
2022/12/10 04:27:24;;;;;;;;;38.50;34.75;;;;;5.90;72.55;100600.34;5076134;28;45373;-71
2022/12/10 04:29:50;;;;;;;;;33.75;31.00;;;;;5.95;72.82;100606.31;5076273;27;45419;-71
2022/12/10 04:32:16;;;;;;;;;33.50;31.00;;;;;5.92;72.27;100603.78;5076615;27;45441;-71
2022/12/10 04:34:42;;;;;;;;;37.50;37.50;;;;;5.95;72.71;100597.50;5076366;28;46433;-73
2022/12/10 04:37:07;;;;;;;;;39.50;31.25;;;;;6.00;72.84;100601.69;5076080;27;45510;-73
2022/12/10 04:39:33;;;;;;;;;42.50;35.50;;;;;6.01;72.45;100597.28;5075314;28;45453;-73
2022/12/10 04:41:59;;;;;;;;;37.25;27.25;;;;;6.08;72.25;100608.47;5076599;27;45575;-74
2022/12/10 04:44:25;;;;;;;;;38.50;35.00;;;;;6.11;72.36;100609.19;5075917;28;45531;-73
2022/12/10 04:46:50;;;;;;;;;39.00;33.25;;;;;6.10;71.41;100606.63;5076135;27;45451;-73
2022/12/10 04:49:16;;;;;;;;;36.25;33.25;;;;;6.02;71.34;100599.88;5075739;27;45422;-73
2022/12/10 04:51:42;;;;;;;;;36.00;35.25;;;;;6.14;71.40;100617.03;5075816;27;45373;-73
2022/12/10 04:54:08;;;;;;;;;41.50;35.75;;;;;6.13;71.83;100627.69;5075997;27;46084;-73
2022/12/10 04:56:34;;;;;;;;;30.50;29.75;;;;;6.14;71.58;100630.28;5075859;28;45385;-73
2022/12/10 04:59:00;;;;;;;;;36.00;32.75;;;;;4.99;71.69;100429.50;5076143;27;45428;-73
2022/12/10 05:01:27;;;;;;;;;33.00;32.00;;;;;6.24;70.86;100628.09;5076421;27;45363;-73
2022/12/10 05:03:52;;;;;;;;;40.50;37.25;;;;;6.25;70.44;100631.56;5075853;27;46203;-73
2022/12/10 05:06:19;;;;;;;;;30.25;29.50;;;;;5.71;71.95;100571.16;5075575;27;45486;-73
2022/12/10 05:08:45;;;;;;;;;32.25;29.25;;;;;6.02;71.98;100623.69;5075782;27;45394;-73
2022/12/10 05:11:17;;;;;;;;;33.25;29.25;;;;;6.02;71.49;100631.66;5075975;27;45440;-73
2022/12/10 05:13:43;;;;;;;;;34.50;32.50;;;;;5.86;72.08;100588.19;5076531;27;47226;-73
2022/12/10 05:16:10;;;;;;;;;26.00;26.00;;;;;5.95;72.44;100623.97;5076473;27;45424;-73
2022/12/10 05:18:36;;;;;;;;;49.50;34.00;;;;;5.94;72.26;100627.53;5076017;28;45524;-73
2022/12/10 05:21:04;;;;;;;;;37.50;30.75;;;;;5.92;72.14;100617.03;5072677;27;45405;-73
2022/12/10 05:23:30;;;;;;;;;42.75;36.00;;;;;5.90;71.95;100606.50;5075247;28;45344;-73
2022/12/10 05:26:11;;;;;;;;;28.75;27.00;;;;;6.12;71.25;100625.97;5075655;27;45422;-73
2022/12/10 05:28:42;;;;;;;;;31.75;28.50;;;;;5.51;71.42;100550.81;5075798;27;45355;-73
2022/12/10 05:31:21;;;;;;;;;31.00;28.00;;;;;6.03;71.85;100638.66;5075544;27;45388;-73
2022/12/10 05:33:47;;;;;;;;;24.75;23.50;;;;;5.81;71.02;100601.59;5107872;27;46244;-73
2022/12/10 05:36:15;;;;;;;;;31.75;30.00;;;;;6.04;71.77;100644.81;5073894;28;45397;-73
2022/12/10 05:38:41;;;;;;;;;29.25;27.75;;;;;6.05;71.02;100636.81;5075217;28;45402;-73
2022/12/10 05:41:18;;;;;;;;;37.75;33.25;;;;;6.05;70.62;100647.41;5074964;27;45552;-73
2022/12/10 05:43:44;;;;;;;;;37.00;30.50;;;;;5.95;70.49;100637.22;5075188;27;45642;-73
2022/12/10 05:46:22;;;;;;;;;26.25;25.00;;;;;5.90;70.79;100648.00;5074953;28;45571;-73
2022/12/10 05:48:48;;;;;;;;;32.25;30.25;;;;;5.89;71.55;100649.78;5075130;27;45451;-73
2022/12/10 05:51:17;;;;;;;;;29.75;27.25;;;;;5.92;71.95;100654.09;5075174;27;45392;-73
2022/12/10 05:53:43;;;;;;;;;5.75;2.00;;;;;5.90;71.75;100642.72;5091022;27;46463;-73
2022/12/10 05:56:18;;;;;;;;;29.50;27.75;;;;;5.93;71.29;100652.31;5074888;28;45441;-73
2022/12/10 05:58:45;;;;;;;;;24.00;21.50;;;;;5.76;70.02;100642.41;5075221;28;45421;-73
2022/12/10 06:01:14;;;;;;;;;25.50;21.25;;;;;5.85;69.86;100649.97;5074812;27;45420;-73
2022/12/10 06:03:40;;;;;;;;;23.50;20.50;;;;;5.81;69.33;100648.38;5072972;28;48345;-73
2022/12/10 06:06:06;;;;;;;;;20.50;18.00;;;;;5.69;69.95;100647.94;5074874;27;45411;-73
2022/12/10 06:08:33;;;;;;;;;23.25;20.25;;;;;5.53;70.21;100649.50;5074908;27;45505;-73
2022/12/10 06:11:03;;;;;;;;;23.50;22.25;;;;;5.65;70.69;100654.28;5090391;27;45567;-73
2022/12/10 06:13:28;;;;;;;;;24.75;22.00;;;;;5.36;70.28;100631.66;5074775;27;45369;-73
2022/12/10 06:15:54;;;;;;;;;25.25;22.75;;;;;5.66;70.98;100663.13;5074551;27;45354;-73
2022/12/10 06:18:20;;;;;;;;;31.50;26.25;;;;;5.81;71.03;100677.50;5074484;27;45351;-73
2022/12/10 06:20:46;;;;;;;;;30.75;28.00;;;;;5.71;71.27;100642.63;5074999;28;45354;-73
2022/12/10 06:23:11;;;;;;;;;28.00;27.25;;;;;5.97;71.56;100675.94;5074474;28;45444;-73
2022/12/10 06:25:40;;;;;;;;;29.75;26.75;;;;;5.98;71.21;100672.41;5074683;28;45570;-73
2022/12/10 06:28:06;;;;;;;;;26.00;22.75;;;;;5.81;71.30;100643.09;5074718;28;45361;-73
2022/12/10 06:30:32;;;;;;;;;30.00;24.75;;;;;6.06;71.00;100680.06;5074417;28;45412;-71
2022/12/10 06:32:57;;;;;;;;;31.00;25.00;;;;;5.96;70.99;100676.88;5089846;27;45444;-71
2022/12/10 06:35:23;;;;;;;;;27.75;26.25;;;;;6.00;71.60;100682.94;5074409;27;45393;-70
2022/12/10 06:37:49;;;;;;;;;25.50;21.75;;;;;5.99;70.50;100682.09;5074629;27;45466;-70
2022/12/10 06:40:15;;;;;;;;;26.75;21.75;;;;;6.00;70.58;100697.03;5074119;27;45452;-71
2022/12/10 06:42:40;;;;;;;;;29.50;23.25;;;;;6.02;71.16;100700.50;5074042;27;45440;-71
2022/12/10 06:45:07;;;;;;;;;20.25;17.75;;;;;6.05;71.44;100699.50;5072961;27;45418;-71
2022/12/10 06:47:32;;;;;;;;;25.00;18.50;;;;;5.86;69.51;100688.78;5072797;28;45603;-71
2022/12/10 06:49:57;;;;;;;;;20.75;16.25;;;;;5.75;70.14;100688.34;5074090;27;45622;-71
2022/12/10 06:52:23;;;;;;;;;21.00;19.00;;;;;5.48;70.69;100689.38;5073981;28;45823;-71
2022/12/10 06:54:48;;;;;;;;;20.25;18.75;;;;;5.37;71.32;100697.72;5072765;28;45464;-71
2022/12/10 06:57:14;;;;;;;;;17.25;17.25;;;;;5.53;71.96;100681.25;5073855;27;45416;-71
2022/12/10 06:59:39;;;;;;;;;25.00;18.75;;;;;5.57;71.23;100685.50;5074120;27;45453;-71
2022/12/10 07:02:05;;;;;;;;;21.50;16.50;;;;;5.69;71.14;100697.38;5073667;27;45451;-70
2022/12/10 07:04:30;;;;;;;;;21.00;17.00;;;;;5.78;70.39;100712.06;5073888;27;45512;-70
2022/12/10 07:06:55;;;;;;;;;22.00;17.75;;;;;5.49;70.83;100679.66;5072604;27;45531;-71
2022/12/10 07:09:21;;;;;;;;;22.50;18.75;;;;;5.74;70.73;100719.25;5073364;28;45453;-71
2022/12/10 07:11:46;;;;;;;;;21.25;20.25;;;;;5.51;70.52;100672.53;5074149;28;46268;-70
2022/12/10 07:14:18;;;;;;;;;17.00;13.75;;;;;5.77;70.76;100712.97;5074872;27;45278;-71
2022/12/10 07:16:43;;;;;;;;;18.50;17.50;;;;;5.60;71.33;100717.16;5074617;27;45303;-70
2022/12/10 07:19:11;;;;;;;;;18.50;14.00;;;;;5.43;71.06;100690.47;5070038;28;45475;-70
2022/12/10 07:21:39;;;;;;;;;19.75;16.75;;;;;5.69;70.77;100731.78;5036385;28;46818;-70
2022/12/10 07:24:09;;;;;;;;;22.25;21.50;;;;;5.82;71.32;100730.41;5071635;27;45729;-70
2022/12/10 07:26:37;;;;;;;;;21.50;18.00;;;;;5.76;70.86;100727.13;5072752;28;45392;-70
2022/12/10 07:29:04;;;;;;;;;23.25;19.25;;;;;5.80;70.45;100734.03;5073571;28;45324;-71
2022/12/10 07:31:30;;;;;;;;;21.00;17.75;;;;;5.55;70.71;100729.69;5072588;28;46922;-70
2022/12/10 07:33:57;;;;;;;;;23.75;21.25;;;;;5.36;71.37;100666.06;5073459;28;45295;-70
2022/12/10 07:36:23;;;;;;;;;18.75;18.75;;;;;5.66;70.75;100701.00;5074412;28;45382;-70
2022/12/10 07:38:50;;;;;;;;;19.00;18.00;;;;;5.49;71.33;100658.47;5107403;27;45460;-70
2022/12/10 07:41:16;;;;;;;;;25.00;23.50;;;;;6.04;70.87;100742.81;5074239;27;46264;-70
2022/12/10 07:43:43;;;;;;;;;23.50;20.50;;;;;6.14;70.74;100746.81;5069014;28;45875;-70
2022/12/10 07:46:12;;;;;;;;;17.25;16.25;;;;;6.08;70.67;100735.59;5065119;28;45365;-70
2022/12/10 07:48:39;;;;;;;;;28.75;24.00;;;;;5.67;71.13;100678.06;5070643;27;45511;-70
2022/12/10 07:51:05;;;;;;;;;25.25;22.00;;;;;5.73;69.66;100685.75;5064102;28;46543;-70
2022/12/10 07:53:31;;;;;;;;;23.50;22.00;;;;;5.66;69.90;100674.56;5076637;27;45517;-70
2022/12/10 07:55:57;;;;;;;;;18.50;16.00;;;;;5.93;69.92;100713.22;5078392;28;45373;-70
2022/12/10 07:58:22;;;;;;;;;19.50;19.00;;;;;6.23;69.21;100765.00;5076504;27;45512;-70
2022/12/10 08:00:48;;;;;;;;;23.50;20.75;;;;;6.30;70.43;100767.38;5077813;28;45330;-70
2022/12/10 08:03:13;;;;;;;;;16.00;14.25;;;;;5.87;69.79;100690.47;5078021;28;45405;-69
2022/12/10 08:05:39;;;;;;;;;26.75;25.00;;;;;6.34;70.23;100771.63;5078294;27;45330;-70
2022/12/10 08:08:04;;;;;;;;;23.50;22.50;;;;;6.32;71.09;100766.38;5076954;28;45361;-71
2022/12/10 08:10:30;;;;;;;;;25.50;24.50;;;;;6.15;69.27;100751.16;5078029;28;46378;-71
2022/12/10 08:12:55;;;;;;;;;23.25;19.25;;;;;6.33;69.90;100769.88;5078915;28;45312;-71
2022/12/10 08:15:20;;;;;;;;;22.50;20.25;;;;;6.30;68.38;100770.00;5079085;28;45488;-72
2022/12/10 08:17:46;;;;;;;;;26.00;26.00;;;;;6.27;69.14;100775.44;5078185;28;45412;-71
2022/12/10 08:20:11;;;;;;;;;36.25;32.75;;;;;6.29;70.21;100785.06;5077226;28;46277;-71
2022/12/10 08:22:38;;;;;;;;;19.75;14.50;;;;;5.96;70.24;100716.59;5077805;28;45548;-72
2022/12/10 08:25:03;;;;;;;;;28.75;27.00;;;;;5.80;69.48;100695.16;5077671;27;45447;-71
2022/12/10 08:27:29;;;;;;;;;24.75;20.75;;;;;6.32;69.08;100787.56;5077674;27;45327;-71
2022/12/10 08:29:54;;;;;;;;;23.25;23.25;;;;;5.90;69.08;100722.16;5077142;28;45900;-71
2022/12/10 08:32:19;;;;;;;;;23.50;21.50;;;;;6.37;68.71;100804.16;5077384;27;45309;-71
2022/12/10 08:34:45;;;;;;;;;22.75;22.25;;;;;6.45;69.21;100802.97;5077737;27;45304;-70
2022/12/10 08:37:10;;;;;;;;;28.25;21.75;;;;;6.50;68.16;100806.28;5093290;27;45458;-72
2022/12/10 08:39:36;;;;;;;;;30.00;25.50;;;;;6.48;68.18;100808.13;5077549;27;45442;-71
2022/12/10 08:42:01;;;;;;;;;23.25;20.50;;;;;6.47;68.44;100809.94;5075948;28;45437;-71
2022/12/10 08:44:26;;;;;;;;;27.00;21.25;;;;;6.40;69.43;100798.72;5075622;28;45484;-71
2022/12/10 08:46:52;;;;;;;;;25.25;21.00;;;;;6.45;69.64;100810.91;5083446;27;45378;-71
2022/12/10 08:49:17;;;;;;;;;26.50;23.25;;;;;6.40;69.78;100809.31;5085497;27;46471;-71
2022/12/10 08:51:42;;;;;;;;;28.00;24.50;;;;;6.48;68.96;100816.09;5086526;27;45648;-70
2022/12/10 08:54:08;;;;;;;;;24.25;21.25;;;;;6.46;68.32;100815.31;5077220;27;45394;-70
2022/12/10 08:56:34;;;;;;;;;25.50;22.00;;;;;6.37;68.97;100788.25;5076961;28;45550;-70
2022/12/10 08:59:00;;;;;;;;;26.50;19.00;;;;;6.54;68.55;100815.84;5076604;27;45408;-70
2022/12/10 09:01:25;;;;;;;;;21.75;21.25;;;;;6.28;68.27;100758.63;5076462;27;45343;-70
2022/12/10 09:03:51;;;;;;;;;22.25;22.25;;;;;6.60;67.84;100815.59;5076681;28;45353;-70
2022/12/10 09:06:20;;;;;;;;;23.00;20.00;;;;;6.64;67.84;100819.84;5077004;27;45448;-68
2022/12/10 09:08:45;;;;;;;;;23.75;21.00;;;;;6.69;67.89;100828.47;5076785;27;45679;-69
2022/12/10 09:11:17;;;;;;;;;18.25;18.25;;;;;6.64;67.19;100835.75;5075456;28;45463;-70
2022/12/10 09:13:43;;;;;;;;;22.00;18.00;;;;;6.63;67.17;100839.31;5077025;27;45463;-70
2022/12/10 09:16:08;;;;;;;;;25.25;20.75;;;;;6.22;68.14;100765.03;5076873;28;45443;-70
2022/12/10 09:18:34;;;;;;;;;25.50;23.25;;;;;6.72;67.97;100838.94;5076763;27;47051;-71
2022/12/10 09:20:59;;;;;;;;;28.50;24.50;;;;;6.79;68.02;100836.03;5076934;28;45528;-70
2022/12/10 09:23:25;;;;;;;;;28.00;24.50;;;;;6.72;68.46;100833.66;5077209;28;45417;-69
2022/12/10 09:25:50;;;;;;;;;25.00;24.50;;;;;6.76;68.58;100825.56;5076965;28;45259;-69
2022/12/10 09:28:15;;;;;;;;;24.00;22.50;;;;;6.92;68.36;100845.19;5075028;28;47500;-72
2022/12/10 09:30:41;;;;;;;;;30.00;25.50;;;;;6.94;68.24;100829.19;5075151;28;45401;-71
2022/12/10 09:33:06;;;;;;;;;32.50;26.50;;;;;6.93;68.16;100841.63;5076945;27;45389;-70
2022/12/10 09:35:32;;;;;;;;;36.25;28.00;;;;;6.92;65.64;100841.69;5076857;27;45364;-70
2022/12/10 09:37:58;;;;;;;;;31.25;26.75;;;;;6.66;66.31;100820.63;5076353;27;45346;-72
2022/12/10 09:40:39;;;;;;;;;31.00;24.75;;;;;6.85;67.93;100844.56;5076057;27;45490;-74
2022/12/10 09:43:28;;;;;;;;;25.50;19.75;;;;;6.88;65.55;100841.81;5076609;28;45453;-73
2022/12/10 09:46:18;;;;;;;;;26.25;23.75;;;;;6.78;66.13;100839.63;5076519;27;45437;-73
2022/12/10 09:48:43;;;;;;;;;20.75;17.75;;;;;6.87;67.53;100850.69;5075038;28;46161;-74
2022/12/10 09:51:31;;;;;;;;;23.25;21.25;;;;;7.01;67.41;100847.44;5076316;28;45370;-74
2022/12/10 09:54:00;;;;;;;;;27.25;22.75;;;;;7.04;67.09;100836.69;5076380;27;45295;-74
2022/12/10 09:56:31;;;;;;;;;22.75;21.00;;;;;7.07;65.92;100844.53;5075628;27;45231;-72
2022/12/10 09:58:59;;;;;;;;;22.00;17.75;;;;;7.05;65.09;100859.66;5076012;27;46719;-74
2022/12/10 10:01:29;;;;;;;;;27.50;24.25;;;;;6.84;65.31;100853.50;5076096;27;45303;-73
2022/12/10 10:03:55;;;;;;;;;29.50;25.00;;;;;7.04;65.97;100859.72;5076083;28;45413;-74
2022/12/10 10:06:23;;;;;;;;;25.00;24.50;;;;;7.20;66.03;100854.63;5074867;28;45390;-74
2022/12/10 10:08:53;;;;;;;;;25.50;22.00;;;;;7.26;66.95;100856.13;5072017;27;45447;-74
2022/12/10 10:11:23;;;;;;;;;27.00;23.50;;;;;7.36;65.59;100850.34;5070841;27;45517;-74
2022/12/10 10:14:11;;;;;;;;;26.00;24.75;;;;;7.43;65.02;100850.09;5074034;27;45396;-74
2022/12/10 10:16:45;;;;;;;;;28.50;22.75;;;;;7.13;65.31;100818.69;5068383;27;45438;-74
2022/12/10 10:19:17;;;;;;;;;31.00;27.50;;;;;7.00;66.68;100802.44;5088917;27;46185;-74
2022/12/10 10:21:48;;;;;;;;;30.50;25.75;;;;;7.38;67.18;100853.81;5079457;27;45430;-72
2022/12/10 10:24:17;;;;;;;;;32.50;27.50;;;;;7.46;66.07;100852.59;5091808;27;45382;-73
2022/12/10 10:26:43;;;;;;;;;29.00;24.50;;;;;7.61;65.61;100854.56;5077058;27;45466;-73
2022/12/10 10:29:12;;;;;;;;;30.50;26.25;;;;;7.63;64.44;100843.91;5085921;27;46113;-73
2022/12/10 10:31:40;;;;;;;;;27.25;24.00;;;;;7.45;64.54;100858.84;5080211;27;45514;-72
2022/12/10 10:34:18;;;;;;;;;22.50;22.25;;;;;7.22;63.32;100845.66;5091684;27;45506;-72
2022/12/10 10:36:45;;;;;;;;;28.25;24.25;;;;;7.20;64.31;100849.31;5081046;27;45673;-72
2022/12/10 10:39:24;;;;;;;;;26.25;25.00;;;;;7.37;65.66;100845.94;5081389;27;46118;-72
2022/12/10 10:41:55;;;;;;;;;20.75;15.25;;;;;7.26;64.99;100857.03;5077029;27;45436;-72
2022/12/10 10:44:24;;;;;;;;;30.00;26.25;;;;;7.40;64.97;100864.38;5081144;27;45665;-72
2022/12/10 10:46:52;;;;;;;;;33.00;27.00;;;;;7.07;65.25;100795.91;5082297;27;45491;-72
2022/12/10 10:49:21;;;;;;;;;24.00;22.00;;;;;7.36;65.39;100866.28;5090300;27;46334;-72
2022/12/10 10:51:46;;;;;;;;;28.75;21.75;;;;;7.37;65.05;100857.41;5077958;27;45833;-72
2022/12/10 10:54:11;;;;;;;;;28.00;22.75;;;;;7.51;64.59;100855.94;5076144;27;45291;-72
2022/12/10 10:56:43;;;;;;;;;25.00;16.75;;;;;7.21;63.64;100816.56;5088152;27;45712;-72
2022/12/10 10:59:33;;;;;;;;;22.75;21.50;;;;;7.39;62.73;100838.75;5083322;27;47484;-72
2022/12/10 11:02:19;;;;;;;;;29.75;25.75;;;;;7.54;63.17;100858.44;5077692;27;45392;-73
2022/12/10 11:04:46;;;;;;;;;21.25;19.50;;;;;7.77;63.07;100864.50;5087475;27;45458;-73
2022/12/10 11:07:20;;;;;;;;;19.25;17.75;;;;;8.03;63.18;100850.88;5086182;27;45404;-73
2022/12/10 11:09:46;;;;;;;;;27.50;22.50;;;;;8.03;62.09;100856.19;5078105;27;47552;-72
2022/12/10 11:12:30;;;;;;;;;25.25;22.75;;;;;7.99;62.62;100848.44;5093504;27;45441;-73
2022/12/10 11:14:55;;;;;;;;;28.75;22.00;;;;;7.93;62.47;100854.03;5085838;27;45431;-73
2022/12/10 11:17:25;;;;;;;;;32.25;26.50;;;;;8.24;62.40;100845.47;5083465;27;45529;-72
2022/12/10 11:19:55;;;;;;;;;26.25;23.50;;;;;8.44;61.72;100854.31;5092030;27;45572;-73
2022/12/10 11:22:32;;;;;;;;;31.50;25.50;;;;;8.47;61.85;100835.56;5078315;27;45543;-74
2022/12/10 11:24:59;;;;;;;;;25.50;21.75;;;;;8.61;60.90;100845.50;5086438;27;45517;-74
2022/12/10 11:27:43;;;;;;;;;27.00;24.00;;;;;8.48;60.02;100821.34;5091600;27;45421;-73
2022/12/10 11:30:23;;;;;;;;;28.25;24.00;;;;;8.77;60.88;100825.19;5081035;27;45555;-73
2022/12/10 11:33:26;;;;;;;;;24.50;20.50;;;;;9.12;60.44;100841.16;5089793;27;45418;-73